<?xml version="1.0" encoding="UTF-8" standalone="no" ?>
<gpx xmlns="http://www.topografix.com/GPX/1/1" xmlns:xsi="http://www.w3.org/2001/XMLSchema-instance" xsi:schemaLocation="http://www.topografix.com/GPX/1/1 http://www.topografix.com/GPX/1/1/gpx.xsd" version="1.1" creator="VisuGPX - https://www.visugpx.com">
  <metadata>
    <name>Activité Randonnée TwoNav</name>
    <desc><![CDATA[2021-12-05_124441.trk]]></desc>
  </metadata>
  <trk>
    <name><![CDATA[Activité Randonnée TwoNav_1]]></name>
    <trkseg>
      <trkpt lat="48.0654" lon="7.02224">
        <ele>1133.6</ele>
        <time>2021-12-05T11:44:41Z</time>
      </trkpt>
      <trkpt lat="48.0654" lon="7.02223">
        <ele>1133.6</ele>
        <time>2021-12-05T11:44:42Z</time>
      </trkpt>
      <trkpt lat="48.0653" lon="7.02221">
        <ele>1133.7</ele>
        <time>2021-12-05T11:45:38Z</time>
      </trkpt>
      <trkpt lat="48.06519" lon="7.02223">
        <ele>1133.7</ele>
        <time>2021-12-05T11:45:44Z</time>
      </trkpt>
      <trkpt lat="48.06507" lon="7.02223">
        <ele>1133.9</ele>
        <time>2021-12-05T11:45:49Z</time>
      </trkpt>
      <trkpt lat="48.06495" lon="7.0223">
        <ele>1134.2</ele>
        <time>2021-12-05T11:45:55Z</time>
      </trkpt>
      <trkpt lat="48.06493" lon="7.02233">
        <ele>1134.3</ele>
        <time>2021-12-05T11:46:02Z</time>
      </trkpt>
      <trkpt lat="48.0649" lon="7.02237">
        <ele>1134.4</ele>
        <time>2021-12-05T11:46:08Z</time>
      </trkpt>
      <trkpt lat="48.06487" lon="7.0224">
        <ele>1134.6</ele>
        <time>2021-12-05T11:46:15Z</time>
      </trkpt>
      <trkpt lat="48.06484" lon="7.02244">
        <ele>1134.7</ele>
        <time>2021-12-05T11:46:23Z</time>
      </trkpt>
      <trkpt lat="48.06482" lon="7.02248">
        <ele>1134.9</ele>
        <time>2021-12-05T11:46:24Z</time>
      </trkpt>
      <trkpt lat="48.06479" lon="7.02251">
        <ele>1135</ele>
        <time>2021-12-05T11:46:42Z</time>
      </trkpt>
      <trkpt lat="48.06476" lon="7.02255">
        <ele>1135.2</ele>
        <time>2021-12-05T11:46:43Z</time>
      </trkpt>
      <trkpt lat="48.06473" lon="7.02259">
        <ele>1135.3</ele>
        <time>2021-12-05T11:48:55Z</time>
      </trkpt>
      <trkpt lat="48.06471" lon="7.02262">
        <ele>1135.5</ele>
        <time>2021-12-05T11:49:04Z</time>
      </trkpt>
      <trkpt lat="48.06468" lon="7.02266">
        <ele>1135.6</ele>
        <time>2021-12-05T11:49:16Z</time>
      </trkpt>
      <trkpt lat="48.06465" lon="7.0227">
        <ele>1136.6</ele>
        <time>2021-12-05T11:49:16Z</time>
      </trkpt>
      <trkpt lat="48.06465" lon="7.0227">
        <ele>1136.6</ele>
        <time>2021-12-05T11:49:16Z</time>
      </trkpt>
    </trkseg>
  </trk>
</gpx>